Time;durP1;ratioP1;P1;durP2;ratioP2;P2;SDS_P1;SDS_P2;PMS_P1;PMS_P2;Temp;Humidity;BMP_temperature;BMP_pressure;BME280_temperature;BME280_humidity;BME280_pressure;Samples;Min_cycle;Max_cycle;Signal;HPM_P1;HPM_P2
2023/06/15 00:02:17;;;;;;;11.77;3.60;;;;;;;16.24;61.79;101181.41;4990874;28;20115;-68
2023/06/15 00:04:43;;;;;;;8.57;3.15;;;;;;;16.19;62.13;101175.69;4990584;28;20517;-68
2023/06/15 00:07:10;;;;;;;6.15;3.50;;;;;;;16.15;62.03;101180.63;4990616;28;20093;-66
2023/06/15 00:09:37;;;;;;;10.70;3.38;;;;;;;16.21;62.58;101180.94;4991150;28;20458;-68
2023/06/15 00:12:04;;;;;;;9.35;3.00;;;;;;;16.23;62.12;101176.16;4991066;28;20822;-65
2023/06/15 00:14:30;;;;;;;9.98;3.55;;;;;;;16.18;62.41;101185.69;4991262;28;20042;-67
2023/06/15 00:16:57;;;;;;;6.10;3.58;;;;;;;16.15;62.75;101175.22;4989209;28;20160;-67
2023/06/15 00:19:24;;;;;;;8.07;3.90;;;;;;;16.08;62.98;101168.88;4990495;28;20509;-68
2023/06/15 00:21:53;;;;;;;10.43;3.63;;;;;;;15.99;63.97;101175.41;4990844;28;20507;-67
2023/06/15 00:24:20;;;;;;;6.90;3.67;;;;;;;16.01;63.81;101175.22;4990180;28;20049;-67
2023/06/15 00:26:46;;;;;;;11.90;3.28;;;;;;;15.93;64.15;101170.72;4990084;28;20129;-68
2023/06/15 00:29:13;;;;;;;14.55;3.85;;;;;;;15.84;64.55;101167.25;4989991;28;20100;-68
2023/06/15 00:31:39;;;;;;;8.48;3.60;;;;;;;15.85;64.96;101166.25;4990426;28;20436;-68
2023/06/15 00:34:06;;;;;;;8.05;3.47;;;;;;;15.85;65.24;101166.25;4990355;28;20104;-68
2023/06/15 00:36:32;;;;;;;8.25;3.08;;;;;;;15.73;66.13;101169.56;5004533;28;20050;-68
2023/06/15 00:38:59;;;;;;;9.45;3.55;;;;;;;15.73;66.57;101166.88;5009761;28;20073;-67
2023/06/15 00:41:26;;;;;;;11.45;3.38;;;;;;;15.69;66.56;101169.94;5009268;28;20038;-68
2023/06/15 00:43:52;;;;;;;9.68;4.00;;;;;;;15.72;66.47;101174.16;5013867;28;20077;-67
2023/06/15 00:46:20;;;;;;;14.00;4.30;;;;;;;15.70;66.66;101163.50;5013357;28;20061;-69
2023/06/15 00:48:46;;;;;;;9.25;3.75;;;;;;;15.75;66.66;101162.97;5013175;28;20049;-68
2023/06/15 00:51:14;;;;;;;13.77;3.83;;;;;;;15.76;66.70;101163.81;5013242;28;20046;-67
2023/06/15 00:53:43;;;;;;;6.25;3.42;;;;;;;15.65;67.58;101176.75;5013718;28;20077;-67
2023/06/15 00:56:10;;;;;;;7.38;3.40;;;;;;;15.48;69.08;101169.75;5013337;28;20491;-68
2023/06/15 00:58:37;;;;;;;16.42;3.85;;;;;;;15.49;69.33;101168.72;5013379;28;20092;-68
2023/06/15 01:01:03;;;;;;;9.60;3.65;;;;;;;15.52;69.26;101175.66;5014096;28;20069;-66
2023/06/15 01:03:31;;;;;;;4.95;3.53;;;;;;;15.58;69.20;101173.06;5013361;28;20065;-69
2023/06/15 01:09:57;;;;;;;7.47;3.33;;;;;;;15.39;71.07;101170.84;5013031;28;20089;-68
2023/06/15 01:12:25;;;;;;;8.27;3.65;;;;;;;15.33;71.77;101158.91;5012955;28;20093;-67
2023/06/15 01:14:51;;;;;;;9.55;3.75;;;;;;;15.44;71.48;101171.16;5013702;28;20079;-68
2023/06/15 01:17:23;;;;;;;13.63;3.70;;;;;;;15.12;74.09;101173.06;5013440;28;20494;-67
2023/06/15 01:20:04;;;;;;;7.43;3.95;;;;;;;15.17;74.75;101169.81;5012756;28;20409;-68
2023/06/15 01:22:58;;;;;;;9.05;3.70;;;;;;;15.20;75.20;101174.88;5013035;28;20065;-68
2023/06/15 01:25:41;;;;;;;8.80;3.40;;;;;;;15.27;74.61;101180.41;5011876;28;20452;-68
2023/06/15 01:28:10;;;;;;;12.95;3.42;;;;;;;15.28;75.05;101171.28;5011807;28;20387;-65
2023/06/15 01:30:57;;;;;;;7.97;3.72;;;;;;;15.25;75.43;101178.69;5011956;28;20045;-67
2023/06/15 01:33:25;;;;;;;7.88;3.63;;;;;;;15.09;76.09;101172.59;5011786;28;20069;-67
2023/06/15 01:35:52;;;;;;;14.10;3.22;;;;;;;14.95;77.48;101180.44;5004117;28;20050;-67
2023/06/15 01:38:22;;;;;;;10.90;3.67;;;;;;;14.73;79.94;101181.22;4992320;28;20081;-67
2023/06/15 01:40:51;;;;;;;7.95;3.90;;;;;;;14.81;79.92;101169.53;4992188;28;20074;-67
2023/06/15 01:43:21;;;;;;;8.00;3.58;;;;;;;14.62;82.75;101168.94;4991941;28;20541;-67
2023/06/15 01:45:50;;;;;;;7.80;3.30;;;;;;;14.61;82.50;101164.56;4993649;28;20077;-67
2023/06/15 01:48:17;;;;;;;13.60;3.80;;;;;;;14.34;85.70;101167.69;4993341;28;20803;-67
2023/06/15 01:50:44;;;;;;;10.40;3.60;;;;;;;14.29;87.51;101179.03;4993631;28;20100;-67
2023/06/15 01:53:11;;;;;;;7.47;4.20;;;;;;;14.28;88.51;101169.22;4991482;28;20054;-66
2023/06/15 01:55:37;;;;;;;5.75;3.63;;;;;;;14.27;88.96;101165.69;4991022;28;20038;-66
2023/06/15 01:58:04;;;;;;;14.65;4.50;;;;;;;14.06;91.09;101160.03;4991840;28;20046;-65
2023/06/15 02:00:31;;;;;;;11.52;4.10;;;;;;;13.97;93.10;101161.88;4991525;28;20046;-67
2023/06/15 02:02:57;;;;;;;10.15;4.10;;;;;;;14.06;93.50;101174.34;4990395;28;20050;-67
2023/06/15 02:05:24;;;;;;;12.43;3.83;;;;;;;14.23;91.05;101164.34;4992257;28;20388;-67
2023/06/15 02:07:51;;;;;;;6.57;3.35;;;;;;;14.15;91.87;101153.59;4990904;28;20097;-68
2023/06/15 02:10:18;;;;;;;11.02;4.03;;;;;;;14.21;91.76;101155.59;4990912;28;20419;-67
2023/06/15 02:12:45;;;;;;;6.78;3.20;;;;;;;14.34;90.33;101156.91;4991827;28;20046;-67
2023/06/15 02:15:11;;;;;;;11.93;4.07;;;;;;;14.44;88.56;101157.53;4991627;28;20046;-67
2023/06/15 02:17:39;;;;;;;10.90;3.95;;;;;;;14.37;88.29;101149.28;4992306;28;20105;-67
2023/06/15 02:20:09;;;;;;;9.85;3.85;;;;;;;14.32;89.28;101154.34;4991462;28;20079;-66
2023/06/15 02:22:36;;;;;;;11.48;3.75;;;;;;;14.13;90.85;101152.91;4991426;28;20046;-67
2023/06/15 02:25:03;;;;;;;12.60;3.85;;;;;;;13.89;94.19;101155.69;4993231;28;20145;-67
2023/06/15 02:27:29;;;;;;;9.27;3.80;;;;;;;13.95;94.68;101152.31;4992445;28;20050;-68
2023/06/15 02:29:56;;;;;;;12.02;4.03;;;;;;;14.11;92.77;101156.78;4992307;28;20092;-67
2023/06/15 02:32:34;;;;;;;12.55;4.32;;;;;;;13.74;96.36;101150.13;4992553;28;20523;-66
2023/06/15 02:35:12;;;;;;;7.35;3.70;;;;;;;13.82;96.63;101159.06;4992385;28;20050;-67
2023/06/15 02:37:39;;;;;;;13.05;3.75;;;;;;;13.92;95.75;101155.34;5009974;28;20050;-67
2023/06/15 02:40:08;;;;;;;7.25;3.90;;;;;;;14.02;95.06;101151.44;5010301;28;20099;-65
2023/06/15 02:42:36;;;;;;;6.38;3.70;;;;;;;14.23;92.68;101150.88;5010702;28;20049;-65
2023/06/15 02:45:04;;;;;;;9.73;3.40;;;;;;;14.32;90.93;101154.34;5009939;28;20053;-66
2023/06/15 02:47:31;;;;;;;8.40;4.35;;;;;;;14.20;92.38;101156.59;5010733;28;20050;-66
2023/06/15 02:49:59;;;;;;;5.63;2.92;;;;;;;14.36;90.78;101149.44;5010408;28;20406;-65
2023/06/15 02:52:26;;;;;;;4.95;3.08;;;;;;;14.40;90.66;101153.50;5009928;28;20457;-66
2023/06/15 02:54:53;;;;;;;6.93;3.17;;;;;;;14.43;90.11;101163.97;5010422;28;20061;-66
2023/06/15 02:57:19;;;;;;;6.63;3.42;;;;;;;14.58;88.58;101158.66;5010087;28;20433;-66
2023/06/15 02:59:46;;;;;;;6.30;3.55;;;;;;;14.49;89.41;101160.53;5010314;28;20054;-66
2023/06/15 03:02:13;;;;;;;8.13;3.63;;;;;;;14.37;91.05;101156.56;5009287;28;20100;-66
2023/06/15 03:04:47;;;;;;;9.82;4.30;;;;;;;14.17;94.52;101156.94;4992495;28;20056;-68
2023/06/15 03:07:16;;;;;;;7.65;3.88;;;;;;;14.00;97.21;101161.53;5009370;28;20096;-67
2023/06/15 03:09:47;;;;;;;5.63;3.20;;;;;;;14.16;95.90;101162.53;5010182;28;20045;-67
2023/06/15 03:12:14;;;;;;;11.52;4.05;;;;;;;13.90;99.69;101163.59;5009772;28;20057;-69
2023/06/15 03:14:44;;;;;;;10.02;3.75;;;;;;;13.90;100.00;101165.44;5010629;28;20045;-68
2023/06/15 03:17:12;;;;;;;7.35;3.03;;;;;;;14.00;98.95;101163.41;5010289;28;20050;-67
2023/06/15 03:19:40;;;;;;;7.20;3.33;;;;;;;13.81;100.00;101157.38;5010117;28;20077;-68
2023/06/15 03:22:10;;;;;;;9.38;3.58;;;;;;;13.87;100.00;101155.00;5009986;28;20056;-65
2023/06/15 03:24:36;;;;;;;8.55;3.53;;;;;;;13.98;100.00;101157.34;4992250;28;20045;-68
2023/06/15 03:27:05;;;;;;;9.27;3.65;;;;;;;14.11;99.15;101162.19;5009427;28;20049;-67
2023/06/15 03:29:36;;;;;;;11.80;4.10;;;;;;;14.10;99.53;101160.53;5010869;28;20054;-67
2023/06/15 03:32:07;;;;;;;12.50;4.32;;;;;;;14.05;100.00;101152.94;5010441;28;20049;-67
2023/06/15 03:34:38;;;;;;;7.35;4.10;;;;;;;13.75;100.00;101157.19;5011252;28;20046;-67
2023/06/15 03:37:05;;;;;;;11.43;3.72;;;;;;;13.70;100.00;101156.84;4988399;28;20050;-62
2023/06/15 03:39:32;;;;;;;11.52;3.72;;;;;;;13.54;100.00;101160.41;4991829;28;20050;-67
2023/06/15 03:41:58;;;;;;;6.90;3.10;;;;;;;14.02;100.00;101164.09;4989648;28;20081;-66
2023/06/15 03:44:25;;;;;;;9.50;3.75;;;;;;;14.01;100.00;101168.66;4990562;28;20461;-67
2023/06/15 03:46:52;;;;;;;10.32;4.10;;;;;;;14.08;100.00;101166.09;4989668;28;20046;-66
2023/06/15 03:49:18;;;;;;;6.47;3.53;;;;;;;14.17;100.00;101170.44;4990638;28;20560;-67
2023/06/15 03:51:45;;;;;;;7.25;3.75;;;;;;;14.39;98.89;101163.47;4990680;28;20134;-66
2023/06/15 03:54:12;;;;;;;17.13;3.83;;;;;;;14.39;98.94;101165.31;4989008;28;20462;-66
2023/06/15 03:56:39;;;;;;;5.47;3.33;;;;;;;14.48;96.92;101166.97;4990092;28;20076;-70
2023/06/15 03:59:06;;;;;;;7.63;3.67;;;;;;;14.48;98.07;101161.56;4990256;28;20039;-66
2023/06/15 04:01:33;;;;;;;15.50;3.78;;;;;;;14.43;98.90;101161.25;4990104;28;20486;-66
2023/06/15 04:03:59;;;;;;;12.77;3.97;;;;;;;14.61;96.69;101164.56;4988759;28;20101;-66
2023/06/15 04:06:26;;;;;;;8.70;3.42;;;;;;;14.67;96.06;101163.84;4989585;28;20046;-67
2023/06/15 04:08:53;;;;;;;6.10;3.25;;;;;;;14.59;96.74;101160.34;4989922;28;20414;-65
2023/06/15 04:11:22;;;;;;;11.63;3.85;;;;;;;14.64;97.12;101158.81;4990122;28;20054;-67
2023/06/15 04:13:48;;;;;;;11.02;3.33;;;;;;;14.58;97.27;101167.59;4990897;28;20054;-67
2023/06/15 04:16:15;;;;;;;5.82;3.58;;;;;;;14.49;99.42;101161.38;4990034;28;20116;-66
2023/06/15 04:18:42;;;;;;;9.15;4.13;;;;;;;14.24;100.00;101168.72;4989040;28;20046;-67
2023/06/15 04:21:08;;;;;;;7.70;4.10;;;;;;;14.36;100.00;101169.22;4988542;28;20742;-65
2023/06/15 04:23:36;;;;;;;11.55;3.60;;;;;;;14.27;100.00;101176.47;4989095;28;20051;-65
2023/06/15 04:26:03;;;;;;;10.80;4.25;;;;;;;14.17;100.00;101173.13;4989777;28;20377;-67
2023/06/15 04:28:30;;;;;;;12.65;4.13;;;;;;;13.98;100.00;101176.25;4990386;28;20042;-67
2023/06/15 04:31:10;;;;;;;7.88;3.30;;;;;;;14.23;100.00;101171.63;4989273;28;20046;-67
2023/06/15 04:33:43;;;;;;;10.52;3.78;;;;;;;14.09;100.00;101172.34;4989958;28;20096;-66
2023/06/15 04:36:13;;;;;;;14.57;3.85;;;;;;;13.94;100.00;101173.03;4999910;28;20057;-67
2023/06/15 04:38:46;;;;;;;11.25;4.20;;;;;;;13.90;100.00;101168.13;5008863;28;20490;-67
2023/06/15 04:41:14;;;;;;;10.70;3.67;;;;;;;13.96;100.00;101165.59;5008868;28;20038;-67
2023/06/15 04:43:42;;;;;;;16.75;4.45;;;;;;;13.93;100.00;101168.63;5008337;28;20049;-68
2023/06/15 04:46:08;;;;;;;7.72;3.88;;;;;;;13.95;100.00;101165.78;5009085;28;20049;-66
2023/06/15 04:48:35;;;;;;;15.05;4.28;;;;;;;13.95;100.00;101166.63;5009984;28;20053;-64
2023/06/15 04:51:02;;;;;;;9.10;3.97;;;;;;;14.04;100.00;101178.22;5029760;28;20493;-68
2023/06/15 04:53:28;;;;;;;12.60;3.97;;;;;;;14.05;100.00;101174.53;5028982;28;20160;-66
2023/06/15 04:55:55;;;;;;;12.52;3.90;;;;;;;14.01;100.00;101175.88;5028091;28;20103;-66
2023/06/15 04:58:21;;;;;;;15.77;3.65;;;;;;;14.05;100.00;101178.06;5027981;28;20446;-66
2023/06/15 05:00:48;;;;;;;10.38;4.00;;;;;;;14.15;100.00;101190.50;5028980;28;20057;-69
2023/06/15 05:03:14;;;;;;;9.18;4.20;;;;;;;14.19;100.00;101186.47;5028512;28;20053;-66
2023/06/15 05:05:41;;;;;;;11.27;4.22;;;;;;;14.44;100.00;101184.53;5028519;28;20045;-66
2023/06/15 05:08:08;;;;;;;11.98;3.92;;;;;;;14.56;100.00;101183.13;5028065;28;20386;-68
2023/06/15 05:10:34;;;;;;;6.57;4.03;;;;;;;14.69;100.00;101187.97;5029305;28;20041;-66
2023/06/15 05:13:11;;;;;;;11.88;4.22;;;;;;;14.89;100.00;101191.94;5027908;28;20069;-66
2023/06/15 05:15:38;;;;;;;8.15;3.90;;;;;;;15.01;100.00;101184.28;5027987;28;20107;-67
2023/06/15 05:18:05;;;;;;;10.80;3.85;;;;;;;14.94;100.00;101194.13;5028965;28;20049;-65
2023/06/15 05:20:31;;;;;;;6.63;3.95;;;;;;;15.09;100.00;101186.09;5029471;28;20052;-67
2023/06/15 05:22:58;;;;;;;8.13;4.18;;;;;;;15.22;97.49;101189.91;5028953;28;20045;-67
2023/06/15 05:25:24;;;;;;;8.05;4.43;;;;;;;15.30;96.36;101189.00;5027467;28;20517;-66
2023/06/15 05:27:51;;;;;;;8.70;3.45;;;;;;;15.34;95.46;101184.91;5026241;28;20049;-67
2023/06/15 05:30:18;;;;;;;7.28;3.92;;;;;;;15.30;95.98;101188.16;5031172;28;20402;-67
2023/06/15 05:32:44;;;;;;;11.23;3.88;;;;;;;15.34;95.66;101193.03;5031632;28;20041;-67
2023/06/15 05:35:11;;;;;;;8.90;3.88;;;;;;;15.39;94.56;101190.59;5029249;28;20128;-66
2023/06/15 05:37:37;;;;;;;8.75;3.40;;;;;;;15.50;93.86;101183.94;5012120;28;20049;-67
2023/06/15 05:40:05;;;;;;;10.38;3.80;;;;;;;15.52;96.08;101190.00;5012091;28;20046;-66
2023/06/15 05:42:31;;;;;;;7.05;3.38;;;;;;;15.55;94.03;101195.06;4994682;28;20077;-67
2023/06/15 05:44:58;;;;;;;8.55;4.25;;;;;;;15.34;96.88;101198.44;5012372;28;20050;-65
2023/06/15 05:47:25;;;;;;;6.78;3.65;;;;;;;15.29;100.00;101195.41;5009841;28;20378;-67
2023/06/15 05:49:51;;;;;;;8.90;3.70;;;;;;;15.14;100.00;101200.75;5010958;28;20053;-67
2023/06/15 05:52:19;;;;;;;12.07;3.90;;;;;;;14.95;100.00;101204.75;5010086;28;20048;-67
2023/06/15 05:54:46;;;;;;;10.88;4.22;;;;;;;15.16;100.00;101201.44;5011236;28;20053;-67
2023/06/15 05:57:13;;;;;;;13.27;3.60;;;;;;;15.22;100.00;101202.56;5012436;28;20449;-67
2023/06/15 05:59:40;;;;;;;16.92;4.13;;;;;;;15.36;100.00;101206.34;5009252;28;20057;-67
2023/06/15 06:02:09;;;;;;;9.45;3.58;;;;;;;15.44;98.26;101203.59;5010106;28;20100;-65
2023/06/15 06:04:36;;;;;;;8.88;3.60;;;;;;;15.59;95.98;101209.88;5009590;28;20469;-67
2023/06/15 06:07:07;;;;;;;7.72;3.22;;;;;;;15.40;97.81;101207.69;5012187;28;20461;-67
2023/06/15 06:09:35;;;;;;;8.98;3.53;;;;;;;15.52;97.60;101216.22;5010947;28;20049;-68
2023/06/15 06:12:01;;;;;;;9.45;4.00;;;;;;;15.49;97.13;101212.00;5011075;28;20053;-65
2023/06/15 06:14:28;;;;;;;10.18;4.03;;;;;;;15.65;94.78;101211.91;5009871;28;20042;-66
2023/06/15 06:16:55;;;;;;;12.85;4.38;;;;;;;15.78;92.34;101215.84;5010956;28;21674;-67
2023/06/15 06:19:23;;;;;;;9.88;3.40;;;;;;;15.62;94.92;101200.56;5011387;28;20437;-70
2023/06/15 06:21:49;;;;;;;9.85;3.47;;;;;;;15.78;92.92;101207.72;5010268;28;20104;-69
2023/06/15 06:24:16;;;;;;;10.80;3.90;;;;;;;15.81;91.93;101210.06;5011535;28;20453;-71
2023/06/15 06:26:48;;;;;;;7.93;3.22;;;;;;;15.78;92.50;101205.88;5009684;28;20394;-71
2023/06/15 06:29:15;;;;;;;11.65;4.00;;;;;;;15.77;91.63;101201.47;5010424;28;20046;-71
2023/06/15 06:31:42;;;;;;;7.18;3.15;;;;;;;15.87;90.80;101201.22;5011379;28;20111;-70
2023/06/15 06:34:10;;;;;;;8.70;3.78;;;;;;;15.87;91.30;101202.06;4994657;28;20070;-69
2023/06/15 06:36:37;;;;;;;9.27;3.38;;;;;;;15.99;89.02;101202.47;5009576;28;20041;-70
2023/06/15 06:39:04;;;;;;;11.57;3.83;;;;;;;16.06;88.21;101198.00;5009666;28;20053;-70
2023/06/15 06:41:30;;;;;;;8.52;3.13;;;;;;;16.06;86.51;101208.00;5009484;28;20049;-70
2023/06/15 06:43:57;;;;;;;12.60;3.83;;;;;;;15.93;87.69;101205.91;5009654;28;20125;-69
2023/06/15 06:46:23;;;;;;;10.63;3.65;;;;;;;16.04;86.89;101213.56;5009536;28;20092;-69
2023/06/15 06:48:50;;;;;;;7.43;3.70;;;;;;;16.10;86.44;101204.72;5028443;28;20065;-70
2023/06/15 06:51:17;;;;;;;14.20;3.67;;;;;;;16.01;87.34;101216.66;5029822;28;20046;-70
2023/06/15 06:53:44;;;;;;;9.40;3.40;;;;;;;16.00;85.89;101211.44;5029822;28;20049;-70
2023/06/15 06:56:11;;;;;;;5.93;3.40;;;;;;;16.18;84.37;101207.34;5030607;28;20129;-70
2023/06/15 06:58:37;;;;;;;11.43;3.42;;;;;;;16.30;83.60;101201.47;5029618;28;20038;-70
2023/06/15 07:01:04;;;;;;;8.88;3.35;;;;;;;16.43;81.88;101202.47;5031333;28;20053;-70
2023/06/15 07:03:31;;;;;;;12.27;3.40;;;;;;;16.54;80.41;101203.06;5031053;28;20061;-70
2023/06/15 07:05:59;;;;;;;6.65;3.55;;;;;;;16.64;79.41;101200.91;5031194;28;20045;-70
2023/06/15 07:08:26;;;;;;;11.38;3.38;;;;;;;16.73;79.23;101204.38;5029889;28;20088;-69
2023/06/15 07:10:52;;;;;;;6.47;3.45;;;;;;;16.78;78.27;101204.63;5027823;28;20137;-70
2023/06/15 07:13:19;;;;;;;11.52;3.28;;;;;;;16.86;76.93;101199.13;5029520;28;20464;-70
2023/06/15 07:15:45;;;;;;;12.77;3.95;;;;;;;16.92;77.07;101200.22;5028529;28;20065;-69
2023/06/15 07:18:14;;;;;;;15.27;3.42;;;;;;;16.58;78.38;101196.28;5029439;28;20045;-69
2023/06/15 07:20:41;;;;;;;13.93;3.05;;;;;;;16.69;77.46;101197.66;5028164;28;20056;-69
2023/06/15 07:23:08;;;;;;;7.13;3.53;;;;;;;16.76;76.78;101190.44;5029720;28;20046;-68
2023/06/15 07:25:35;;;;;;;7.30;3.15;;;;;;;16.81;75.88;101196.13;5030959;28;20080;-70
2023/06/15 07:28:02;;;;;;;7.47;3.20;;;;;;;16.86;75.65;101191.81;5030019;28;20041;-71
2023/06/15 07:30:29;;;;;;;13.57;3.03;;;;;;;16.92;75.32;101195.66;5028906;28;20045;-70
2023/06/15 07:32:56;;;;;;;5.85;3.53;;;;;;;17.10;73.95;101200.66;5029316;28;20489;-72
2023/06/15 07:35:23;;;;;;;6.53;3.10;;;;;;;17.35;72.52;101190.28;5023874;28;20050;-70
2023/06/15 07:37:49;;;;;;;12.40;3.40;;;;;;;17.59;71.30;101192.63;5009329;28;20521;-69
2023/06/15 07:40:16;;;;;;;9.48;3.33;;;;;;;17.91;70.15;101203.94;5009030;28;20046;-69
2023/06/15 07:42:43;;;;;;;5.55;3.45;;;;;;;18.24;67.38;101190.63;5009145;28;20057;-71
2023/06/15 07:45:10;;;;;;;6.93;3.33;;;;;;;18.29;67.04;101190.84;5009324;28;20096;-66
2023/06/15 07:47:37;;;;;;;14.13;3.33;;;;;;;18.70;65.33;101184.59;5009521;28;20517;-69
2023/06/15 07:50:04;;;;;;;17.75;4.13;;;;;;;19.04;63.71;101192.91;5009999;28;20867;-69
2023/06/15 07:52:31;;;;;;;10.88;3.38;;;;;;;19.17;62.08;101193.78;5008122;28;20045;-69
2023/06/15 07:54:57;;;;;;;8.10;3.40;;;;;;;18.90;63.79;101187.38;5009321;28;20100;-70
2023/06/15 07:57:26;;;;;;;8.30;3.70;;;;;;;18.98;62.44;101181.78;5007604;28;20046;-70
2023/06/15 07:59:53;;;;;;;13.30;3.42;;;;;;;18.98;62.02;101180.94;5008306;28;20046;-69
2023/06/15 08:02:19;;;;;;;16.30;4.00;;;;;;;18.54;64.13;101191.19;5007978;28;20045;-69
2023/06/15 08:04:46;;;;;;;9.30;3.83;;;;;;;18.59;63.82;101182.47;5006741;28;20481;-69
2023/06/15 08:07:13;;;;;;;12.15;3.85;;;;;;;18.70;63.69;101181.03;5007006;28;20050;-70
2023/06/15 08:09:40;;;;;;;18.20;4.40;;;;;;;18.44;65.04;101184.44;5005932;28;20049;-70
2023/06/15 08:12:07;;;;;;;10.15;3.67;;;;;;;18.06;67.19;101185.69;5008687;28;20132;-68
2023/06/15 08:14:35;;;;;;;12.18;3.80;;;;;;;18.31;67.02;101182.53;5009468;28;20512;-71
2023/06/15 08:17:03;;;;;;;20.48;4.75;;;;;;;18.21;66.86;101179.31;5009196;28;20136;-70
2023/06/15 08:19:29;;;;;;;11.32;4.03;;;;;;;18.71;65.80;101171.81;5008464;28;20049;-70
2023/06/15 08:21:56;;;;;;;14.70;4.53;;;;;;;18.76;64.81;101178.34;5008135;28;20057;-68
2023/06/15 08:24:23;;;;;;;10.05;4.10;;;;;;;19.14;63.99;101182.44;5008063;28;20046;-71
2023/06/15 08:26:54;;;;;;;7.18;4.20;;;;;;;19.44;62.47;101186.47;5008048;28;20050;-69
2023/06/15 08:29:20;;;;;;;15.75;4.13;;;;;;;19.68;61.49;101178.78;5008447;28;20045;-71
2023/06/15 08:31:50;;;;;;;17.90;4.50;;;;;;;19.29;61.72;101185.00;5009239;28;20398;-68
2023/06/15 08:34:18;;;;;;;15.30;4.15;;;;;;;19.72;61.15;101180.84;5008378;28;20042;-69
2023/06/15 08:36:45;;;;;;;13.90;4.22;;;;;;;19.68;60.34;101185.03;4999901;28;20050;-68
2023/06/15 08:39:11;;;;;;;17.88;4.68;;;;;;;19.47;60.20;101180.63;5006916;28;20190;-68
2023/06/15 08:41:38;;;;;;;9.02;4.45;;;;;;;19.28;61.11;101178.72;5007122;28;20038;-71
2023/06/15 08:44:05;;;;;;;11.52;4.25;;;;;;;18.82;62.46;101179.38;5008976;28;20053;-68
2023/06/15 08:46:32;;;;;;;10.55;4.10;;;;;;;18.87;63.71;101178.81;5008587;28;20044;-67
2023/06/15 08:48:59;;;;;;;13.73;3.72;;;;;;;19.03;63.31;101183.88;5005391;28;20045;-70
2023/06/15 08:51:33;;;;;;;11.27;3.80;;;;;;;19.59;61.12;101188.16;5008084;28;20784;-72
2023/06/15 08:54:01;;;;;;;8.88;3.65;;;;;;;19.98;60.40;101179.19;5006615;28;20456;-70
2023/06/15 08:56:28;;;;;;;15.10;4.18;;;;;;;20.46;57.88;101172.63;5008433;28;20080;-69
2023/06/15 08:58:55;;;;;;;12.73;3.60;;;;;;;20.66;56.96;101170.63;5008740;28;20049;-70
2023/06/15 09:01:23;;;;;;;9.07;4.35;;;;;;;21.25;55.36;101169.50;5008396;28;20100;-71
2023/06/15 09:03:55;;;;;;;7.65;3.53;;;;;;;21.54;53.49;101172.66;5009578;28;20045;-70
2023/06/15 09:06:23;;;;;;;8.95;4.05;;;;;;;22.25;51.56;101163.16;5012144;28;20042;-71
2023/06/15 09:08:51;;;;;;;16.80;4.72;;;;;;;21.91;51.23;101162.69;5012078;28;20049;-71
2023/06/15 09:11:18;;;;;;;8.05;4.07;;;;;;;21.62;51.63;101162.28;5011157;28;20045;-71
2023/06/15 09:13:46;;;;;;;10.57;3.42;;;;;;;22.44;50.43;101156.66;5010593;28;20383;-71
2023/06/15 09:16:13;;;;;;;11.18;4.20;;;;;;;23.11;48.69;101162.06;4993473;28;20072;-70
2023/06/15 09:18:52;;;;;;;10.57;4.10;;;;;;;22.93;48.29;101164.88;5011412;28;20050;-72
2023/06/15 09:21:21;;;;;;;10.20;3.53;;;;;;;23.20;47.52;101159.88;5012362;28;20045;-70
2023/06/15 09:23:49;;;;;;;9.77;4.00;;;;;;;24.24;45.25;101154.72;5011030;28;20497;-71
2023/06/15 09:26:23;;;;;;;11.23;4.32;;;;;;;25.31;42.93;101145.91;5011925;28;20038;-72
2023/06/15 09:28:54;;;;;;;8.73;3.30;;;;;;;25.00;41.80;101149.19;5010886;28;20050;-72
2023/06/15 09:31:34;;;;;;;9.95;3.75;;;;;;;25.12;40.94;101148.03;5011097;28;20057;-72
2023/06/15 09:34:03;;;;;;;7.28;3.30;;;;;;;25.69;40.17;101144.34;5010800;28;20050;-72
2023/06/15 09:36:50;;;;;;;10.32;3.60;;;;;;;24.31;40.77;101143.63;4997902;28;20422;-72
2023/06/15 09:39:31;;;;;;;8.55;3.50;;;;;;;23.79;42.35;101140.84;4992779;28;20544;-71
2023/06/15 09:42:02;;;;;;;10.05;4.63;;;;;;;22.29;45.84;101137.91;4999226;28;20046;-71
2023/06/15 09:44:29;;;;;;;11.77;4.05;;;;;;;21.90;47.34;101130.13;4996149;28;20046;-70
2023/06/15 09:47:00;;;;;;;10.77;4.10;;;;;;;21.17;47.69;101131.56;4990795;28;20050;-70
2023/06/15 09:49:27;;;;;;;;;;;;;;;20.98;49.52;101137.97;4993330;28;20141;-71
2023/06/15 09:51:55;;;;;;;7.50;3.92;;;;;;;20.78;50.14;101144.34;4991425;28;19928;-72
2023/06/15 09:54:25;;;;;;;18.00;4.82;;;;;;;20.91;49.89;101140.72;4990536;28;20081;-71
2023/06/15 09:56:53;;;;;;;8.25;4.05;;;;;;;20.72;50.35;101137.03;4990329;28;20046;-72
2023/06/15 09:59:20;;;;;;;5.38;3.53;;;;;;;20.50;50.26;101146.59;4990153;28;20471;-71
2023/06/15 10:01:49;;;;;;;9.95;4.45;;;;;;;20.44;51.64;101140.09;4989603;28;20062;-72
2023/06/15 10:04:19;;;;;;;9.15;3.67;;;;;;;20.18;52.26;101132.84;4990422;28;20050;-73
2023/06/15 10:06:50;;;;;;;9.45;4.45;;;;;;;20.00;54.38;101140.81;5000278;28;20103;-70
2023/06/15 10:09:24;;;;;;;7.75;4.20;;;;;;;19.60;55.22;101149.84;4996020;28;20403;-70
2023/06/15 10:11:55;;;;;;;16.75;4.40;;;;;;;19.64;55.17;101144.84;4990073;28;20138;-69
2023/06/15 10:14:25;;;;;;;;;;;;;;;19.61;55.42;101139.81;4990895;28;20046;-71
2023/06/15 10:16:59;;;;;;;11.60;4.30;;;;;;;19.44;56.01;101152.97;4991431;28;19921;-71
2023/06/15 10:19:31;;;;;;;11.10;4.75;;;;;;;19.71;55.33;101146.53;4990521;28;21004;-71
2023/06/15 10:21:58;;;;;;;;;;;;;;;19.31;55.46;101151.13;4989776;28;20494;-71
2023/06/15 10:24:25;;;;;;;8.35;4.13;;;;;;;19.37;56.15;101146.69;4991207;28;19922;-71
2023/06/15 10:26:53;;;;;;;15.32;4.30;;;;;;;19.45;55.14;101144.63;4990409;28;20482;-70
2023/06/15 10:29:28;;;;;;;14.60;4.22;;;;;;;19.29;55.53;101153.19;4991821;28;20042;-71
2023/06/15 10:32:12;;;;;;;9.45;4.20;;;;;;;19.29;55.26;101153.19;4991737;28;20057;-71
2023/06/15 10:35:01;;;;;;;10.75;4.35;;;;;;;19.26;55.66;101154.44;4990080;28;20042;-71
2023/06/15 10:37:36;;;;;;;11.18;4.22;;;;;;;19.14;57.10;101155.25;4990646;28;20050;-72
2023/06/15 10:40:13;;;;;;;7.53;4.38;;;;;;;19.24;56.42;101150.25;4991204;28;20050;-72
2023/06/15 10:42:47;;;;;;;15.52;4.75;;;;;;;19.42;57.45;101150.50;4987091;28;20494;-72
2023/06/15 10:45:37;;;;;;;9.45;3.85;;;;;;;19.19;57.65;101147.31;4989113;28;20053;-71
2023/06/15 10:48:06;;;;;;;9.35;4.40;;;;;;;19.30;57.14;101149.41;4979844;28;20403;-72
2023/06/15 10:50:43;;;;;;;11.10;4.82;;;;;;;19.16;57.78;101142.28;4990835;28;20433;-71
2023/06/15 10:53:26;;;;;;;7.72;4.88;;;;;;;19.07;57.80;101143.50;4991884;28;20063;-71
2023/06/15 10:55:58;;;;;;;11.02;4.45;;;;;;;19.05;57.71;101151.06;4991043;28;20054;-71
2023/06/15 10:58:28;;;;;;;9.25;4.30;;;;;;;19.18;56.99;101149.19;4990645;28;20061;-71
2023/06/15 11:01:11;;;;;;;12.27;4.75;;;;;;;19.23;57.28;101149.41;4977380;28;20070;-71
2023/06/15 11:03:42;;;;;;;9.68;4.13;;;;;;;19.07;56.36;101154.41;4986568;28;20541;-70
2023/06/15 11:06:38;;;;;;;5.40;3.63;;;;;;;19.13;54.73;101142.69;4987948;28;20046;-70
2023/06/15 11:09:07;;;;;;;7.80;4.03;;;;;;;18.86;53.94;101153.50;4986376;28;20125;-70
2023/06/15 11:11:36;;;;;;;8.57;3.80;;;;;;;18.78;53.71;101156.38;4990086;28;20129;-71
2023/06/15 11:14:04;;;;;;;8.50;3.20;;;;;;;18.73;54.25;101148.84;4991074;28;20457;-71
2023/06/15 11:16:35;;;;;;;8.23;4.10;;;;;;;18.92;54.98;101146.38;4989211;28;20097;-71
2023/06/15 11:19:14;;;;;;;15.15;3.83;;;;;;;18.77;52.79;101152.00;4988826;28;20398;-70
2023/06/15 11:21:48;;;;;;;7.55;3.70;;;;;;;18.50;52.91;101148.34;4987529;28;20050;-71
2023/06/15 11:24:16;;;;;;;7.85;3.97;;;;;;;18.59;53.96;101140.88;4988520;28;20057;-72
2023/06/15 11:26:44;;;;;;;10.63;3.58;;;;;;;18.65;53.75;101150.91;4987318;28;20042;-71
2023/06/15 11:29:21;;;;;;;13.52;3.80;;;;;;;18.72;53.32;101139.03;4988904;28;20050;-71
2023/06/15 11:31:50;;;;;;;7.05;3.60;;;;;;;18.82;53.69;101141.34;4988352;28;20599;-70
2023/06/15 11:34:20;;;;;;;9.25;3.88;;;;;;;18.86;53.96;101142.63;4989850;28;20068;-71